Kuan Yin — KUANYIN — position and weather

sailwx.info

Track history (hours):
 
Tides and Currents Weather Stations Pressure Air Temp Water Temp Dewpoint Dewpoint Depression Visibility Wind Speed Wind Dir Waves Ship Positions

Kuan Yin

Last reported at 2017-Dec-11 16:58 UTC. Time now 2017-Dec-13 05:34 UTC.
Position N 35°57' W 121°41'.

Length 11 m.

Type: Sailing vessel. MMSI: 367798540.

Date/timePositionNaut miles runAvg speedWind from/ knotsBaromVisibWave heightAir tempDewpointWater temp
2017-Dec-11 16:58N 35°57' W 121°41'2 4.6
2017-Dec-11 16:30N 35°59' W 121°42'2 4.5
2017-Dec-11 16:00N 36°01' W 121°44'2 4.3
2017-Dec-11 15:29N 36°02' W 121°46'2 4.3
2017-Dec-11 15:00N 36°04' W 121°48'2 4.1
2017-Dec-11 14:30N 36°05' W 121°49'2 4.2
2017-Dec-11 14:00N 36°07' W 121°51'2 4.2
2017-Dec-11 13:30N 36°09' W 121°53'2 4.4
2017-Dec-11 13:00N 36°10' W 121°55'2 4.5
2017-Dec-11 12:30N 36°12' W 121°57'2 4.6
2017-Dec-11 12:00N 36°13' W 121°59'2 4.5
2017-Dec-11 11:30N 36°15' W 122°01'2 4.6
2017-Dec-11 11:00N 36°17' W 122°02'2 4.6
2017-Dec-11 10:30N 36°18' W 122°04'2 4.6
2017-Dec-11 10:00N 36°21' W 122°05'2 4.7
2017-Dec-11 09:30N 36°23' W 122°06'2 4.9
2017-Dec-11 09:00N 36°25' W 122°07'2 4.5
2017-Dec-11 08:30N 36°27' W 122°08'2 3.1
2017-Dec-11 08:00N 36°29' W 122°08'2 3.8
2017-Dec-11 07:30N 36°31' W 122°09'3 5.0
2017-Dec-11 07:00N 36°33' W 122°10'3 6.0
2017-Dec-11 06:30N 36°36' W 122°11'3 6.1
2017-Dec-11 06:01N 36°39' W 122°12'3 6.4
2017-Dec-11 05:30N 36°41' W 122°14'3 5.9
2017-Dec-11 05:01N 36°44' W 122°16'3 5.4
2017-Dec-11 04:31N 36°47' W 122°17'2 3.5
2017-Dec-11 04:00N 36°48' W 122°18'44 4.7
2017-Dec-10 18:29N 37°31' W 122°33'3 4.4
2017-Dec-10 17:54N 37°33' W 122°34'3 6.3
2017-Dec-10 17:29N 37°36' W 122°34'4 5.9
2017-Dec-10 16:49N 37°40' W 122°35'2 4.8
2017-Dec-10 16:21N 37°42' W 122°35'2 3.8
2017-Dec-10 15:47N 37°44' W 122°34'3 5.6
2017-Dec-10 15:14N 37°47' W 122°32'1 5.4
2017-Dec-10 15:00N 37°48' W 122°31'2 4.6
2017-Dec-10 14:30N 37°49' W 122°28'2 4.6
2017-Dec-10 14:00N 37°49' W 122°25'2 4.9
2017-Dec-10 13:30N 37°48' W 122°22'2 4.6
2017-Dec-10 13:00N 37°48' W 122°19'2 4.8
2017-Dec-10 12:31N 37°47' W 122°16'1 0.2
2017-Dec-10 06:03N 37°47' W 122°15'0 0.0
2017-Dec-10 06:00N 37°47' W 122°15'1 2.2
2017-Dec-10 05:30N 37°47' W 122°16'1 2.5
2017-Dec-10 05:00N 37°48' W 122°18'2 4.4
2017-Dec-10 04:30N 37°47' W 122°15'0 0.1
2017-Dec-10 03:59N 37°47' W 122°15'0 0.0
2017-Dec-10 03:29N 37°47' W 122°15'0 0.0
2017-Dec-10 02:59N 37°47' W 122°15'0 0.0
2017-Dec-10 02:29N 37°47' W 122°15'0 0.0
2017-Dec-10 01:53N 37°47' W 122°15'0 0.0
2017-Dec-10 01:26N 37°47' W 122°15'0 0.0
2017-Dec-10 00:56N 37°47' W 122°15'0 0.0
2017-Dec-10 00:29N 37°47' W 122°15'0 0.0
2017-Dec-09 23:59N 37°47' W 122°15'0 0.0
2017-Dec-09 23:29N 37°47' W 122°15'0 0.0
2017-Dec-09 22:53N 37°47' W 122°15'0 0.0
2017-Dec-09 22:29N 37°47' W 122°15'0 0.0
2017-Dec-09 21:59N 37°47' W 122°15'0 0.0
2017-Dec-09 21:29N 37°47' W 122°15'0 0.0
2017-Dec-09 20:59N 37°47' W 122°15'0 0.0
2017-Dec-09 20:29N 37°47' W 122°15'0 0.0
2017-Dec-09 19:59N 37°47' W 122°15'0 0.0
2017-Dec-09 19:29N 37°47' W 122°15'0 0.0
2017-Dec-09 18:58N 37°47' W 122°15'0 0.0
2017-Dec-09 18:28N 37°47' W 122°15'0 0.0
2017-Dec-09 17:58N 37°47' W 122°15'0 0.0
2017-Dec-09 17:28N 37°47' W 122°15'0 0.0
2017-Dec-09 16:55N 37°47' W 122°15'0 0.0
2017-Dec-09 16:28N 37°47' W 122°15'0 0.0
2017-Dec-09 15:58N 37°47' W 122°15'0 0.0
2017-Dec-09 05:09N 37°47' W 122°15'0 0.0
2017-Dec-09 04:57N 37°47' W 122°15'0 0.0
2017-Dec-09 04:27N 37°47' W 122°15'0 0.0
2017-Dec-09 02:01N 37°47' W 122°15'0 0.0
2017-Dec-09 01:58N 37°47' W 122°15'0 0.0
2017-Dec-09 01:28N 37°47' W 122°15'0 0.0
2017-Dec-09 00:46N 37°47' W 122°15'0 0.0
2017-Dec-09 00:28N 37°47' W 122°15'0 0.0
2017-Dec-08 23:52N 37°47' W 122°15'0 0.0
2017-Dec-08 23:22N 37°47' W 122°15'0 0.0
2017-Dec-08 22:58N 37°47' W 122°15'0 0.0
2017-Dec-08 22:25N 37°47' W 122°15'0 0.0
2017-Dec-08 21:58N 37°47' W 122°15'0 0.0
2017-Dec-08 21:28N 37°47' W 122°15'0 0.0
2017-Dec-08 20:57N 37°47' W 122°15'0 0.0
2017-Dec-08 20:30N 37°47' W 122°15'0 0.0
2017-Dec-08 20:00N 37°47' W 122°15'0 0.0
2017-Dec-08 19:27N 37°47' W 122°15'0 0.0
2017-Dec-08 18:59N 37°47' W 122°15'0 0.0
2017-Dec-08 18:29N 37°47' W 122°15'0 0.0
2017-Dec-08 17:58N 37°47' W 122°15'0 0.0
2017-Dec-08 17:25N 37°47' W 122°15'0 0.0
2017-Dec-08 05:16N 37°47' W 122°15'0 0.0
2017-Dec-08 04:58N 37°47' W 122°15'0 0.0
2017-Dec-07 19:38N 37°47' W 122°15'0 0.0
2017-Dec-07 19:23N 37°47' W 122°15'  
Track history (hours):
 
Tides and Currents Weather Stations Pressure Air Temp Water Temp Dewpoint Dewpoint Depression Visibility Wind Speed Wind Dir Waves Ship Positions

Kuan Yin

Last reported at 2017-Dec-11 16:58 UTC. Time now 2017-Dec-13 05:34 UTC.
Position N 35°57' W 121°41'.

Length 11 m.

Type: Sailing vessel. MMSI: 367798540.

Date/timePositionNaut miles runAvg speedWind from/ knotsBaromVisibWave heightAir tempDewpointWater temp
2017-Dec-11 16:58N 35°57' W 121°41'2 4.6
2017-Dec-11 16:30N 35°59' W 121°42'2 4.5
2017-Dec-11 16:00N 36°01' W 121°44'2 4.3
2017-Dec-11 15:29N 36°02' W 121°46'2 4.3
2017-Dec-11 15:00N 36°04' W 121°48'2 4.1
2017-Dec-11 14:30N 36°05' W 121°49'2 4.2
2017-Dec-11 14:00N 36°07' W 121°51'2 4.2
2017-Dec-11 13:30N 36°09' W 121°53'2 4.4
2017-Dec-11 13:00N 36°10' W 121°55'2 4.5
2017-Dec-11 12:30N 36°12' W 121°57'2 4.6
2017-Dec-11 12:00N 36°13' W 121°59'2 4.5
2017-Dec-11 11:30N 36°15' W 122°01'2 4.6
2017-Dec-11 11:00N 36°17' W 122°02'2 4.6
2017-Dec-11 10:30N 36°18' W 122°04'2 4.6
2017-Dec-11 10:00N 36°21' W 122°05'2 4.7
2017-Dec-11 09:30N 36°23' W 122°06'2 4.9
2017-Dec-11 09:00N 36°25' W 122°07'2 4.5
2017-Dec-11 08:30N 36°27' W 122°08'2 3.1
2017-Dec-11 08:00N 36°29' W 122°08'2 3.8
2017-Dec-11 07:30N 36°31' W 122°09'3 5.0
2017-Dec-11 07:00N 36°33' W 122°10'3 6.0
2017-Dec-11 06:30N 36°36' W 122°11'3 6.1
2017-Dec-11 06:01N 36°39' W 122°12'3 6.4
2017-Dec-11 05:30N 36°41' W 122°14'3 5.9
2017-Dec-11 05:01N 36°44' W 122°16'3 5.4
2017-Dec-11 04:31N 36°47' W 122°17'2 3.5
2017-Dec-11 04:00N 36°48' W 122°18'44 4.7
2017-Dec-10 18:29N 37°31' W 122°33'3 4.4
2017-Dec-10 17:54N 37°33' W 122°34'3 6.3
2017-Dec-10 17:29N 37°36' W 122°34'4 5.9
2017-Dec-10 16:49N 37°40' W 122°35'2 4.8
2017-Dec-10 16:21N 37°42' W 122°35'2 3.8
2017-Dec-10 15:47N 37°44' W 122°34'3 5.6
2017-Dec-10 15:14N 37°47' W 122°32'1 5.4
2017-Dec-10 15:00N 37°48' W 122°31'2 4.6
2017-Dec-10 14:30N 37°49' W 122°28'2 4.6
2017-Dec-10 14:00N 37°49' W 122°25'2 4.9
2017-Dec-10 13:30N 37°48' W 122°22'2 4.6
2017-Dec-10 13:00N 37°48' W 122°19'2 4.8
2017-Dec-10 12:31N 37°47' W 122°16'1 0.2
2017-Dec-10 06:03N 37°47' W 122°15'0 0.0
2017-Dec-10 06:00N 37°47' W 122°15'1 2.2
2017-Dec-10 05:30N 37°47' W 122°16'1 2.5
2017-Dec-10 05:00N 37°48' W 122°18'2 4.4
2017-Dec-10 04:30N 37°47' W 122°15'0 0.1
2017-Dec-10 03:59N 37°47' W 122°15'0 0.0
2017-Dec-10 03:29N 37°47' W 122°15'0 0.0
2017-Dec-10 02:59N 37°47' W 122°15'0 0.0
2017-Dec-10 02:29N 37°47' W 122°15'0 0.0
2017-Dec-10 01:53N 37°47' W 122°15'0 0.0
2017-Dec-10 01:26N 37°47' W 122°15'0 0.0
2017-Dec-10 00:56N 37°47' W 122°15'0 0.0
2017-Dec-10 00:29N 37°47' W 122°15'0 0.0
2017-Dec-09 23:59N 37°47' W 122°15'0 0.0
2017-Dec-09 23:29N 37°47' W 122°15'0 0.0
2017-Dec-09 22:53N 37°47' W 122°15'0 0.0
2017-Dec-09 22:29N 37°47' W 122°15'0 0.0
2017-Dec-09 21:59N 37°47' W 122°15'0 0.0
2017-Dec-09 21:29N 37°47' W 122°15'0 0.0
2017-Dec-09 20:59N 37°47' W 122°15'0 0.0
2017-Dec-09 20:29N 37°47' W 122°15'0 0.0
2017-Dec-09 19:59N 37°47' W 122°15'0 0.0
2017-Dec-09 19:29N 37°47' W 122°15'0 0.0
2017-Dec-09 18:58N 37°47' W 122°15'0 0.0
2017-Dec-09 18:28N 37°47' W 122°15'0 0.0
2017-Dec-09 17:58N 37°47' W 122°15'0 0.0
2017-Dec-09 17:28N 37°47' W 122°15'0 0.0
2017-Dec-09 16:55N 37°47' W 122°15'0 0.0
2017-Dec-09 16:28N 37°47' W 122°15'0 0.0
2017-Dec-09 15:58N 37°47' W 122°15'0 0.0
2017-Dec-09 05:09N 37°47' W 122°15'0 0.0
2017-Dec-09 04:57N 37°47' W 122°15'0 0.0
2017-Dec-09 04:27N 37°47' W 122°15'0 0.0
2017-Dec-09 02:01N 37°47' W 122°15'0 0.0
2017-Dec-09 01:58N 37°47' W 122°15'0 0.0
2017-Dec-09 01:28N 37°47' W 122°15'0 0.0
2017-Dec-09 00:46N 37°47' W 122°15'0 0.0
2017-Dec-09 00:28N 37°47' W 122°15'0 0.0
2017-Dec-08 23:52N 37°47' W 122°15'0 0.0
2017-Dec-08 23:22N 37°47' W 122°15'0 0.0
2017-Dec-08 22:58N 37°47' W 122°15'0 0.0
2017-Dec-08 22:25N 37°47' W 122°15'0 0.0
2017-Dec-08 21:58N 37°47' W 122°15'0 0.0
2017-Dec-08 21:28N 37°47' W 122°15'0 0.0
2017-Dec-08 20:57N 37°47' W 122°15'0 0.0
2017-Dec-08 20:30N 37°47' W 122°15'0 0.0
2017-Dec-08 20:00N 37°47' W 122°15'0 0.0
2017-Dec-08 19:27N 37°47' W 122°15'0 0.0
2017-Dec-08 18:59N 37°47' W 122°15'0 0.0
2017-Dec-08 18:29N 37°47' W 122°15'0 0.0
2017-Dec-08 17:58N 37°47' W 122°15'0 0.0
2017-Dec-08 17:25N 37°47' W 122°15'0 0.0
2017-Dec-08 05:16N 37°47' W 122°15'0 0.0
2017-Dec-08 04:58N 37°47' W 122°15'0 0.0
2017-Dec-07 19:38N 37°47' W 122°15'0 0.0
2017-Dec-07 19:23N 37°47' W 122°15'  

Dump ship's entire track history